Time;durP1;ratioP1;P1;durP2;ratioP2;P2;SDS_P1;SDS_P2;PMS_P1;PMS_P2;Temp;Humidity;BMP_temperature;BMP_pressure;BME280_temperature;BME280_humidity;BME280_pressure;Samples;Min_cycle;Max_cycle;Signal;HPM_P1;HPM_P2
2022/06/10 00:01:11;;;;;;;5.75;5.05;;;15.60;99.90;;;;;;5050791;28;20186;-78
2022/06/10 00:03:40;;;;;;;8.77;5.00;;;15.70;99.90;;;;;;5069391;28;20191;-78
2022/06/10 00:06:10;;;;;;;6.05;5.45;;;15.80;99.90;;;;;;5050607;28;20558;-78
2022/06/10 00:08:40;;;;;;;7.20;5.07;;;15.70;99.90;;;;;;5053446;28;20206;-78
2022/06/10 00:11:10;;;;;;;11.85;5.65;;;15.80;99.90;;;;;;5048459;28;20207;-78
2022/06/10 00:13:39;;;;;;;7.88;5.13;;;15.80;99.90;;;;;;5053079;28;20205;-78
2022/06/10 00:16:08;;;;;;;10.13;5.82;;;15.90;99.90;;;;;;5052497;28;20225;-78
2022/06/10 00:18:36;;;;;;;5.53;4.78;;;15.90;99.90;;;;;;5050225;28;20203;-78
2022/06/10 00:21:07;;;;;;;9.85;5.55;;;16.00;99.90;;;;;;5051703;28;20210;-78
2022/06/10 00:23:35;;;;;;;7.28;5.30;;;15.90;99.90;;;;;;5051128;28;20194;-78
2022/06/10 00:26:04;;;;;;;9.90;5.18;;;15.90;99.90;;;;;;5045120;28;20210;-78
2022/06/10 00:28:31;;;;;;;6.35;5.65;;;15.80;99.90;;;;;;5052287;28;20194;-78
2022/06/10 00:30:59;;;;;;;8.80;6.07;;;15.80;99.90;;;;;;5049371;28;20211;-78
2022/06/10 00:33:26;;;;;;;5.85;5.10;;;15.80;99.90;;;;;;5051867;28;20664;-78
2022/06/10 00:35:54;;;;;;;7.38;5.22;;;15.70;99.90;;;;;;5052508;28;20230;-77
2022/06/10 00:38:21;;;;;;;6.32;5.72;;;15.80;99.90;;;;;;5052916;28;20198;-78
2022/06/10 00:40:52;;;;;;;7.70;5.40;;;15.80;99.90;;;;;;5048200;28;20191;-78
2022/06/10 00:43:22;;;;;;;7.55;5.88;;;15.70;99.90;;;;;;5066526;28;20194;-78
2022/06/10 00:46:24;;;;;;;7.97;5.88;;;15.70;99.90;;;;;;5047826;28;20218;-78
2022/06/10 00:48:57;;;;;;;8.82;5.88;;;15.70;99.90;;;;;;5049497;28;20201;-78
2022/06/10 00:51:32;;;;;;;6.20;5.47;;;15.70;99.90;;;;;;5047227;28;20218;-78
2022/06/10 00:54:22;;;;;;;6.53;5.60;;;15.80;99.90;;;;;;5050030;28;20198;-78
2022/06/10 00:56:55;;;;;;;6.35;5.75;;;15.70;99.90;;;;;;5045622;28;20556;-78
2022/06/10 00:59:24;;;;;;;9.02;5.93;;;15.70;99.90;;;;;;5049638;28;20199;-78
2022/06/10 01:01:56;;;;;;;6.45;5.70;;;15.70;99.90;;;;;;5054016;28;20186;-78
2022/06/10 01:04:24;;;;;;;7.90;5.38;;;15.70;99.90;;;;;;5047794;28;20193;-78
2022/06/10 01:06:52;;;;;;;7.88;5.30;;;15.60;99.90;;;;;;5042478;28;20598;-78
2022/06/10 01:09:20;;;;;;;8.57;5.45;;;15.60;99.90;;;;;;5043798;28;20550;-78
2022/06/10 01:12:06;;;;;;;11.95;6.20;;;15.60;99.90;;;;;;5050726;28;20218;-78
2022/06/10 01:14:53;;;;;;;8.27;5.82;;;15.50;99.90;;;;;;5052040;28;20194;-78
2022/06/10 01:17:36;;;;;;;8.32;5.53;;;15.50;99.90;;;;;;5050936;28;20227;-78
2022/06/10 01:20:15;;;;;;;6.25;5.65;;;15.50;99.90;;;;;;5049799;28;20228;-77
2022/06/10 01:23:27;;;;;;;7.63;5.88;;;15.40;99.90;;;;;;5052303;28;20201;-78
2022/06/10 01:26:22;;;;;;;8.40;5.82;;;15.40;99.90;;;;;;5034032;28;20218;-78
2022/06/10 01:29:13;;;;;;;6.85;5.65;;;15.40;99.90;;;;;;5048841;28;20201;-78
2022/06/10 01:31:50;;;;;;;6.55;5.10;;;15.40;99.90;;;;;;5046082;28;20211;-78
2022/06/10 01:34:28;;;;;;;5.93;5.43;;;15.30;99.90;;;;;;5063845;28;20194;-78
2022/06/10 01:37:01;;;;;;;8.35;5.25;;;15.30;99.90;;;;;;5049262;28;20237;-78
2022/06/10 01:39:40;;;;;;;9.40;5.50;;;15.30;99.90;;;;;;5052631;28;20213;-78
2022/06/10 01:42:22;;;;;;;7.55;5.40;;;15.30;99.90;;;;;;5048347;28;20186;-78
2022/06/10 01:44:56;;;;;;;8.48;5.25;;;15.30;99.90;;;;;;5045644;28;20201;-78
2022/06/10 01:47:29;;;;;;;7.10;5.80;;;15.20;99.90;;;;;;5049516;28;20218;-78
2022/06/10 01:50:01;;;;;;;7.47;5.97;;;15.20;99.90;;;;;;5061588;28;20209;-78
2022/06/10 01:52:37;;;;;;;8.55;5.97;;;15.20;99.90;;;;;;5048040;28;20214;-78
2022/06/10 01:55:11;;;;;;;7.03;5.68;;;15.10;99.90;;;;;;5051528;28;20200;-78
2022/06/10 01:57:45;;;;;;;9.85;6.50;;;15.10;99.90;;;;;;5045428;28;20225;-78
2022/06/10 02:00:19;;;;;;;9.75;5.95;;;15.10;99.90;;;;;;5043365;28;20241;-78
2022/06/10 02:02:55;;;;;;;7.90;5.50;;;15.10;99.90;;;;;;5060148;28;20205;-78
2022/06/10 02:05:24;;;;;;;7.30;5.75;;;15.10;99.90;;;;;;5036926;28;20186;-78
2022/06/10 02:07:57;;;;;;;10.75;6.30;;;15.00;99.90;;;;;;5048236;28;20198;-78
2022/06/10 02:10:28;;;;;;;7.90;7.05;;;15.00;99.90;;;;;;5049750;28;20207;-78
2022/06/10 02:13:06;;;;;;;8.10;6.30;;;15.00;99.90;;;;;;5080758;28;20217;-78
2022/06/10 02:15:38;;;;;;;7.00;6.10;;;15.00;99.90;;;;;;5045944;28;20206;-78
2022/06/10 02:18:11;;;;;;;7.03;6.18;;;15.00;99.90;;;;;;5049353;28;20209;-78
2022/06/10 02:20:48;;;;;;;6.93;6.20;;;15.00;99.90;;;;;;5045212;28;20205;-79
2022/06/10 02:23:20;;;;;;;8.23;6.43;;;15.00;99.90;;;;;;5046772;28;20675;-78
2022/06/10 02:25:52;;;;;;;7.45;6.70;;;14.90;99.90;;;;;;5044940;28;20229;-78
2022/06/10 02:28:31;;;;;;;8.35;6.30;;;15.00;99.90;;;;;;5036037;28;20190;-78
2022/06/10 02:31:08;;;;;;;7.63;6.93;;;15.00;99.90;;;;;;5049864;28;20548;-78
2022/06/10 02:33:38;;;;;;;7.88;6.65;;;15.00;99.90;;;;;;5049426;28;20194;-78
2022/06/10 02:36:13;;;;;;;7.97;7.20;;;15.00;99.90;;;;;;5048009;28;20226;-78
2022/06/10 02:38:50;;;;;;;8.48;7.22;;;14.80;99.90;;;;;;5050234;28;20671;-78
2022/06/10 02:41:26;;;;;;;7.57;6.72;;;14.90;99.90;;;;;;5045977;28;20193;-78
2022/06/10 02:44:01;;;;;;;7.38;6.70;;;15.00;99.90;;;;;;5038600;28;20560;-79
2022/06/10 02:46:35;;;;;;;7.88;6.82;;;15.00;99.90;;;;;;5052576;28;20587;-78
2022/06/10 02:49:08;;;;;;;7.55;6.60;;;15.00;99.90;;;;;;5049292;28;20191;-78
2022/06/10 02:51:38;;;;;;;9.15;7.32;;;14.90;99.90;;;;;;5050137;28;20210;-78
2022/06/10 02:54:13;;;;;;;8.88;6.53;;;14.80;99.90;;;;;;5051788;28;20187;-78
2022/06/10 02:56:41;;;;;;;8.90;6.60;;;14.80;99.90;;;;;;5053040;28;20222;-79
2022/06/10 03:02:09;;;;;;;10.00;6.65;;;14.70;99.90;;;;;;5056261;28;20182;-78
2022/06/10 03:04:48;;;;;;;7.70;6.97;;;14.80;99.90;;;;;;5053652;28;20194;-78
2022/06/10 03:07:31;;;;;;;7.45;6.03;;;14.70;99.90;;;;;;5037269;28;20215;-78
2022/06/10 03:10:12;;;;;;;8.18;7.13;;;14.60;99.90;;;;;;5045830;28;20222;-79
2022/06/10 03:12:49;;;;;;;7.35;6.65;;;14.70;99.90;;;;;;5048365;28;20691;-78
2022/06/10 03:15:30;;;;;;;8.32;7.03;;;14.70;99.90;;;;;;5065982;28;20212;-78
2022/06/10 03:18:08;;;;;;;7.72;6.30;;;14.60;99.90;;;;;;5066480;28;20699;-78
2022/06/10 03:20:41;;;;;;;7.13;6.35;;;14.70;99.90;;;;;;5053433;28;20315;-78
2022/06/10 03:23:16;;;;;;;7.47;6.10;;;14.70;99.90;;;;;;5047409;28;20195;-78
2022/06/10 03:25:48;;;;;;;8.75;6.72;;;14.70;99.90;;;;;;5051031;28;20567;-79
2022/06/10 03:28:24;;;;;;;8.55;6.72;;;14.60;99.90;;;;;;5050020;28;20198;-78
2022/06/10 03:30:57;;;;;;;7.70;6.90;;;14.60;99.90;;;;;;5044430;28;20198;-78
2022/06/10 03:33:30;;;;;;;8.23;6.80;;;14.50;99.90;;;;;;5052852;28;20213;-78
2022/06/10 03:36:04;;;;;;;8.27;6.85;;;14.50;99.90;;;;;;5047176;28;20231;-78
2022/06/10 03:38:33;;;;;;;9.10;7.05;;;14.60;99.90;;;;;;5038476;28;20198;-78
2022/06/10 03:41:02;;;;;;;11.23;6.80;;;14.60;99.90;;;;;;5044355;28;20203;-78
2022/06/10 03:43:37;;;;;;;8.52;7.22;;;14.50;99.90;;;;;;5049817;28;20194;-78
2022/06/10 03:46:09;;;;;;;11.40;7.10;;;14.50;99.90;;;;;;5050976;28;20233;-78
2022/06/10 03:48:43;;;;;;;8.65;7.10;;;14.60;99.90;;;;;;5052688;28;20199;-78
2022/06/10 03:51:15;;;;;;;10.48;7.30;;;14.60;99.90;;;;;;5062428;28;20203;-78
2022/06/10 03:53:43;;;;;;;11.55;7.55;;;14.50;99.90;;;;;;5053778;28;20576;-78
2022/06/10 03:56:11;;;;;;;12.57;6.90;;;14.40;99.90;;;;;;5045648;28;20226;-78
2022/06/10 03:58:41;;;;;;;8.38;7.07;;;14.50;99.90;;;;;;5049615;28;20206;-78
2022/06/10 04:01:09;;;;;;;8.00;7.20;;;14.50;99.90;;;;;;5045341;28;20215;-78
2022/06/10 04:03:36;;;;;;;9.00;7.40;;;14.50;99.90;;;;;;5051590;28;20190;-78
2022/06/10 04:06:04;;;;;;;11.27;7.47;;;14.40;99.90;;;;;;5077424;28;20227;-78
2022/06/10 04:08:38;;;;;;;10.82;8.32;;;14.50;99.90;;;;;;5049117;28;20210;-78
2022/06/10 04:11:06;;;;;;;10.80;6.93;;;14.50;99.90;;;;;;5047477;28;20228;-78
2022/06/10 04:13:33;;;;;;;9.10;6.85;;;14.50;99.90;;;;;;5051696;28;20676;-78
2022/06/10 04:16:01;;;;;;;9.38;6.97;;;14.50;99.90;;;;;;5053954;28;20587;-78
2022/06/10 04:18:29;;;;;;;9.05;7.75;;;14.50;99.90;;;;;;5041815;28;20556;-77
2022/06/10 04:20:57;;;;;;;10.13;7.55;;;14.50;99.90;;;;;;5046849;28;20209;-77
2022/06/10 04:23:24;;;;;;;9.25;8.13;;;14.50;99.90;;;;;;5053914;28;20687;-78
2022/06/10 04:25:53;;;;;;;9.60;7.50;;;14.50;99.90;;;;;;5050157;28;20245;-77
2022/06/10 04:28:21;;;;;;;8.88;7.68;;;14.60;99.90;;;;;;5045409;28;20195;-78
2022/06/10 04:30:51;;;;;;;7.75;7.05;;;14.50;99.90;;;;;;5050390;28;20202;-78
2022/06/10 04:33:19;;;;;;;10.63;7.32;;;14.70;99.90;;;;;;5053185;28;20215;-77
2022/06/10 04:35:49;;;;;;;10.38;7.47;;;14.70;99.90;;;;;;5047463;28;20228;-77
2022/06/10 04:38:18;;;;;;;10.48;7.47;;;14.60;99.90;;;;;;5051249;28;20202;-78
2022/06/10 04:40:47;;;;;;;10.05;7.10;;;14.70;99.90;;;;;;5042101;28;20214;-77
2022/06/10 04:43:16;;;;;;;10.35;7.53;;;14.60;99.90;;;;;;5067813;28;20191;-77
2022/06/10 04:45:47;;;;;;;10.40;7.47;;;14.70;99.90;;;;;;5067347;28;20210;-77
2022/06/10 04:48:15;;;;;;;10.82;7.30;;;14.80;99.90;;;;;;5063631;28;20198;-77
2022/06/10 04:50:43;;;;;;;9.77;6.85;;;14.80;99.90;;;;;;5048213;28;20205;-78
2022/06/10 04:53:11;;;;;;;8.90;7.60;;;14.90;99.90;;;;;;5052201;28;20226;-78
2022/06/10 04:55:39;;;;;;;9.05;6.47;;;14.90;99.90;;;;;;5062709;28;20640;-77
2022/06/10 04:58:07;;;;;;;7.82;5.88;;;15.10;99.90;;;;;;5078334;28;20679;-77
2022/06/10 05:00:38;;;;;;;8.85;6.05;;;15.10;99.90;;;;;;5074180;28;20198;-77
2022/06/10 05:03:06;;;;;;;7.53;6.20;;;15.10;99.90;;;;;;5065839;28;20653;-77
2022/06/10 05:05:34;;;;;;;11.60;6.15;;;15.10;99.90;;;;;;5043451;28;20668;-77
2022/06/10 05:08:03;;;;;;;10.77;5.85;;;15.10;99.90;;;;;;5058638;28;20207;-77
2022/06/10 05:10:32;;;;;;;8.48;5.97;;;15.10;99.90;;;;;;5045741;28;20203;-77
2022/06/10 05:12:59;;;;;;;9.90;6.05;;;15.30;99.90;;;;;;5047105;28;20223;-77
2022/06/10 05:15:28;;;;;;;9.45;5.75;;;15.30;99.90;;;;;;5048192;28;20206;-77
2022/06/10 05:17:59;;;;;;;13.68;6.20;;;15.40;99.90;;;;;;5050578;28;20206;-77
2022/06/10 05:20:35;;;;;;;10.15;5.68;;;15.40;99.90;;;;;;5043771;28;20199;-77
2022/06/10 05:23:04;;;;;;;8.45;4.82;;;15.50;99.90;;;;;;5043877;28;20198;-77
2022/06/10 05:25:34;;;;;;;11.48;5.32;;;15.50;99.90;;;;;;5051629;28;20667;-76
2022/06/10 05:28:02;;;;;;;7.55;4.60;;;15.50;99.90;;;;;;5051939;28;20190;-77
2022/06/10 05:30:32;;;;;;;7.38;4.57;;;15.60;99.90;;;;;;5050874;28;20217;-76
2022/06/10 05:33:18;;;;;;;7.53;4.82;;;15.70;99.90;;;;;;5044196;28;20214;-77
2022/06/10 05:35:46;;;;;;;6.43;4.03;;;15.70;99.90;;;;;;5047158;28;20684;-76
2022/06/10 05:38:30;;;;;;;9.52;5.75;;;15.80;99.90;;;;;;5075258;28;20209;-76
2022/06/10 05:44:10;;;;;;;7.88;4.15;;;15.90;99.90;;;;;;5047113;28;20195;-77
2022/06/10 05:46:39;;;;;;;10.68;4.82;;;16.10;99.90;;;;;;5045023;28;20217;-76
2022/06/10 05:49:09;;;;;;;9.48;4.65;;;16.10;99.90;;;;;;5048062;28;20642;-77
2022/06/10 05:51:46;;;;;;;8.27;4.90;;;16.10;99.90;;;;;;5039564;28;20191;-79
2022/06/10 05:54:14;;;;;;;8.02;4.22;;;16.10;99.90;;;;;;5048759;28;20233;-76
2022/06/10 05:56:41;;;;;;;5.82;3.72;;;16.20;99.90;;;;;;5047904;28;20226;-76
2022/06/10 05:59:09;;;;;;;6.82;3.97;;;16.20;99.90;;;;;;5048728;28;20195;-76
2022/06/10 06:01:36;;;;;;;9.27;4.32;;;16.30;99.90;;;;;;5044324;28;20207;-76
2022/06/10 06:04:04;;;;;;;8.40;4.35;;;16.30;99.90;;;;;;5049068;28;20202;-76
2022/06/10 06:06:33;;;;;;;4.20;3.80;;;16.20;99.90;;;;;;5051993;28;20213;-76
2022/06/10 06:09:01;;;;;;;10.95;4.53;;;16.20;99.90;;;;;;5053539;28;20569;-77
2022/06/10 06:11:28;;;;;;;11.27;4.50;;;16.20;99.90;;;;;;5041704;28;20195;-76
2022/06/10 06:13:57;;;;;;;7.55;4.03;;;16.20;99.90;;;;;;5042089;28;20214;-76
2022/06/10 06:16:25;;;;;;;6.50;4.03;;;16.20;99.90;;;;;;5048573;28;20214;-76
2022/06/10 06:18:53;;;;;;;7.50;4.10;;;16.30;99.90;;;;;;5049240;28;20206;-76
2022/06/10 06:21:28;;;;;;;8.43;4.72;;;16.30;99.90;;;;;;5049192;28;20204;-75
2022/06/10 06:23:58;;;;;;;5.50;4.43;;;16.20;99.90;;;;;;5046679;28;20198;-75
2022/06/10 06:26:26;;;;;;;6.32;4.18;;;16.20;99.90;;;;;;5053713;28;20215;-76
2022/06/10 06:28:53;;;;;;;7.05;4.40;;;16.20;99.90;;;;;;5048536;28;20205;-75
2022/06/10 06:31:22;;;;;;;7.65;4.18;;;16.20;99.90;;;;;;5043176;28;20197;-76
2022/06/10 06:33:52;;;;;;;7.43;4.03;;;16.30;99.90;;;;;;5042954;28;20225;-75
2022/06/10 06:36:23;;;;;;;7.40;4.25;;;16.30;99.90;;;;;;5048338;28;20229;-76
2022/06/10 06:38:51;;;;;;;8.57;4.15;;;16.40;99.90;;;;;;5049322;28;20205;-76
2022/06/10 06:41:21;;;;;;;10.50;3.85;;;16.40;99.90;;;;;;5048668;28;20193;-76
2022/06/10 06:43:49;;;;;;;10.20;4.32;;;16.40;99.90;;;;;;5046194;28;20198;-76
2022/06/10 06:46:19;;;;;;;6.45;4.05;;;16.50;99.90;;;;;;5065718;28;20225;-76
2022/06/10 06:48:46;;;;;;;7.95;4.22;;;16.60;99.90;;;;;;5050193;28;20281;-76
2022/06/10 06:51:15;;;;;;;8.10;3.75;;;16.50;99.90;;;;;;5050647;28;20206;-76
2022/06/10 06:53:42;;;;;;;9.35;3.70;;;16.60;99.90;;;;;;5050912;28;20215;-76
2022/06/10 06:56:17;;;;;;;9.00;4.05;;;16.60;99.90;;;;;;5047981;28;20230;-76
2022/06/10 06:58:46;;;;;;;10.15;4.13;;;16.70;99.90;;;;;;5047298;28;20197;-76
2022/06/10 07:01:13;;;;;;;5.50;4.05;;;16.60;99.90;;;;;;5044674;28;20202;-76
2022/06/10 07:03:41;;;;;;;9.82;3.85;;;16.70;99.90;;;;;;5045752;28;20199;-76
2022/06/10 07:06:08;;;;;;;8.40;3.63;;;16.70;99.90;;;;;;5066437;28;20225;-76
2022/06/10 07:08:35;;;;;;;7.45;3.22;;;16.70;99.90;;;;;;5048349;28;20194;-76
2022/06/10 07:11:05;;;;;;;7.85;3.08;;;16.80;99.90;;;;;;5047755;28;20202;-76
2022/06/10 07:13:33;;;;;;;10.25;3.45;;;16.80;99.90;;;;;;5058070;28;20218;-76
2022/06/10 07:16:02;;;;;;;6.50;2.58;;;16.80;99.90;;;;;;5050004;28;20226;-76
2022/06/10 07:18:30;;;;;;;8.13;3.03;;;16.80;99.90;;;;;;5050045;28;20207;-76
2022/06/10 07:20:58;;;;;;;11.80;3.10;;;16.80;99.90;;;;;;5057998;28;20214;-76
2022/06/10 07:23:26;;;;;;;5.50;2.88;;;16.80;99.90;;;;;;5043666;28;20559;-76
2022/06/10 07:25:53;;;;;;;10.05;2.88;;;16.80;99.90;;;;;;5075083;28;20225;-76
2022/06/10 07:28:21;;;;;;;6.45;2.63;;;16.90;99.90;;;;;;5049814;28;20206;-76
2022/06/10 07:30:48;;;;;;;8.80;3.10;;;17.00;99.90;;;;;;5050543;28;20207;-76
2022/06/10 07:33:18;;;;;;;8.85;3.17;;;17.00;99.90;;;;;;5051366;28;20193;-76
2022/06/10 07:35:45;;;;;;;6.28;3.17;;;16.90;99.90;;;;;;5039904;28;20213;-76
2022/06/10 07:38:13;;;;;;;6.28;2.47;;;16.90;99.90;;;;;;5050885;28;20202;-76
2022/06/10 07:43:38;;;;;;;6.32;2.55;;;17.00;99.90;;;;;;5045679;28;20197;-76
2022/06/10 07:46:06;;;;;;;6.10;2.80;;;17.00;99.90;;;;;;5053952;28;20229;-76
2022/06/10 07:48:35;;;;;;;8.13;3.05;;;17.10;99.90;;;;;;5053588;28;20201;-76
2022/06/10 07:51:03;;;;;;;6.35;2.60;;;17.10;99.90;;;;;;5053854;28;20213;-76
2022/06/10 07:53:31;;;;;;;6.20;3.00;;;17.20;99.90;;;;;;5048642;28;20195;-76
2022/06/10 07:55:58;;;;;;;4.07;2.60;;;17.30;99.90;;;;;;5045256;28;20218;-76
2022/06/10 07:58:28;;;;;;;8.43;3.35;;;17.30;99.90;;;;;;5054781;28;20194;-76
2022/06/10 08:00:57;;;;;;;7.65;2.55;;;17.30;99.90;;;;;;5054073;28;20203;-76
2022/06/10 08:03:24;;;;;;;7.43;2.38;;;17.40;99.90;;;;;;5051353;28;20198;-76
2022/06/10 08:05:55;;;;;;;6.78;2.13;;;17.40;99.90;;;;;;5072848;28;20223;-75
2022/06/10 08:08:23;;;;;;;3.10;2.20;;;17.50;99.90;;;;;;5045729;28;20205;-76
2022/06/10 08:10:51;;;;;;;6.75;2.72;;;17.70;99.90;;;;;;5049905;28;20202;-76
2022/06/10 08:13:19;;;;;;;9.02;2.55;;;17.50;99.90;;;;;;5048831;28;20207;-76
2022/06/10 08:15:47;;;;;;;8.65;2.50;;;17.40;99.90;;;;;;5052346;28;20222;-77
2022/06/10 08:18:17;;;;;;;5.45;1.92;;;17.50;99.90;;;;;;5049667;28;20194;-76
2022/06/10 08:23:41;;;;;;;3.97;2.13;;;17.50;99.90;;;;;;5052321;28;20194;-76
2022/06/10 08:26:10;;;;;;;8.13;2.47;;;17.60;99.90;;;;;;5048415;28;20233;-76
2022/06/10 08:28:39;;;;;;;6.10;2.30;;;17.70;99.90;;;;;;5052461;28;20202;-76
2022/06/10 08:31:06;;;;;;;7.97;2.47;;;17.90;99.90;;;;;;5052797;28;20209;-78
2022/06/10 08:33:34;;;;;;;4.97;1.65;;;18.00;99.90;;;;;;5053676;28;20194;-78
2022/06/10 08:36:03;;;;;;;4.90;1.98;;;18.00;99.90;;;;;;5052953;28;20233;-77
2022/06/10 08:38:31;;;;;;;5.85;2.33;;;17.80;99.90;;;;;;5039419;28;20195;-76
2022/06/10 08:41:16;;;;;;;3.75;1.73;;;18.00;99.90;;;;;;5038156;28;20207;-76
2022/06/10 08:44:10;;;;;;;4.95;1.90;;;18.10;99.90;;;;;;5050596;28;20584;-76
2022/06/10 08:47:08;;;;;;;5.82;2.50;;;18.10;99.90;;;;;;5054487;28;20217;-76
2022/06/10 08:49:57;;;;;;;5.40;2.00;;;18.20;99.90;;;;;;5047349;28;20190;-77
2022/06/10 08:52:34;;;;;;;4.45;1.90;;;18.30;99.90;;;;;;5030268;28;20205;-77
2022/06/10 08:55:33;;;;;;;5.10;1.88;;;18.40;99.90;;;;;;5047410;28;20225;-77
2022/06/10 08:58:13;;;;;;;4.30;2.10;;;18.60;99.90;;;;;;5047537;28;20195;-77
2022/06/10 09:00:41;;;;;;;4.50;2.00;;;18.70;99.90;;;;;;5049309;28;20198;-77
2022/06/10 09:03:17;;;;;;;9.40;2.30;;;18.80;99.90;;;;;;5052462;28;20206;-77
2022/06/10 09:05:48;;;;;;;6.85;2.13;;;18.70;99.90;;;;;;5053201;28;20200;-76
2022/06/10 09:08:18;;;;;;;5.90;2.10;;;18.70;99.90;;;;;;5046939;28;20198;-76
2022/06/10 09:10:51;;;;;;;3.83;2.08;;;18.80;99.90;;;;;;5048564;28;20199;-76
2022/06/10 09:13:32;;;;;;;5.65;2.47;;;18.90;99.90;;;;;;5045065;28;20187;-76
2022/06/10 09:16:08;;;;;;;7.60;2.10;;;19.00;99.90;;;;;;5045840;28;20226;-76
2022/06/10 09:18:43;;;;;;;6.82;2.33;;;19.00;99.90;;;;;;5047781;28;20213;-76
2022/06/10 09:21:20;;;;;;;5.20;2.47;;;19.10;99.90;;;;;;5041242;28;20825;-76
2022/06/10 09:23:48;;;;;;;7.85;2.45;;;19.10;99.90;;;;;;5047657;28;20210;-77
2022/06/10 09:26:24;;;;;;;7.43;2.20;;;19.00;99.90;;;;;;5081379;28;20218;-76
2022/06/10 09:29:16;;;;;;;5.15;2.40;;;18.90;99.90;;;;;;5045312;28;20206;-76
2022/06/10 09:31:50;;;;;;;7.03;2.47;;;19.10;99.90;;;;;;5045637;28;20200;-76
2022/06/10 09:34:33;;;;;;;8.38;3.35;;;19.30;99.90;;;;;;5051332;28;20680;-77
2022/06/10 09:37:09;;;;;;;6.22;2.60;;;19.30;99.90;;;;;;5039562;28;20223;-78
2022/06/10 09:42:44;;;;;;;8.13;2.75;;;19.30;99.90;;;;;;5055715;28;20668;-79
2022/06/10 09:45:20;;;;;;;5.53;2.47;;;19.40;99.90;;;;;;5052300;28;20190;-78
2022/06/10 09:48:02;;;;;;;5.68;2.38;;;19.20;99.90;;;;;;5052767;28;20264;-77
2022/06/10 09:50:36;;;;;;;5.63;2.50;;;19.10;99.90;;;;;;5054322;28;20208;-77
2022/06/10 09:53:22;;;;;;;7.40;2.70;;;19.20;99.90;;;;;;5058377;28;20214;-77
2022/06/10 09:56:16;;;;;;;7.13;2.47;;;19.10;99.90;;;;;;5052375;28;20229;-78
2022/06/10 09:59:10;;;;;;;4.40;1.48;;;19.20;99.90;;;;;;5047192;28;20607;-77
2022/06/10 10:01:44;;;;;;;6.35;1.60;;;19.00;99.90;;;;;;5058074;28;20202;-78
2022/06/10 10:04:36;;;;;;;7.63;2.88;;;19.00;99.90;;;;;;5055926;28;20193;-77
2022/06/10 10:07:12;;;;;;;4.55;2.17;;;18.90;99.90;;;;;;5048489;28;20225;-78
2022/06/10 10:09:51;;;;;;;6.50;2.08;;;19.00;99.90;;;;;;5043430;28;20201;-77
2022/06/10 10:12:30;;;;;;;3.00;1.67;;;18.90;99.90;;;;;;5041156;28;20182;-77
2022/06/10 10:15:15;;;;;;;6.35;2.78;;;19.00;99.90;;;;;;5038735;28;20209;-76
2022/06/10 10:18:03;;;;;;;7.57;2.08;;;19.10;99.90;;;;;;5044733;28;20564;-76
2022/06/10 10:20:52;;;;;;;3.63;1.30;;;19.10;99.90;;;;;;5061192;28;20668;-75
2022/06/10 10:23:23;;;;;;;5.05;1.50;;;19.00;99.90;;;;;;5037940;28;20644;-76
2022/06/10 10:25:51;;;;;;;5.13;1.30;;;18.90;99.90;;;;;;5042531;28;20237;-76
2022/06/10 10:28:21;;;;;;;4.03;1.58;;;19.10;99.90;;;;;;5043346;28;20194;-76
2022/06/10 10:30:58;;;;;;;4.97;1.55;;;19.30;99.90;;;;;;5048109;28;20201;-76
2022/06/10 10:33:27;;;;;;;5.13;1.63;;;19.30;99.90;;;;;;5045503;28;20197;-76
2022/06/10 10:35:57;;;;;;;3.63;1.50;;;19.40;99.90;;;;;;5044252;28;21020;-76
2022/06/10 10:38:34;;;;;;;7.00;1.60;;;19.50;99.90;;;;;;5050597;28;20686;-76
2022/06/10 10:41:18;;;;;;;1.92;1.13;;;19.40;99.90;;;;;;5081901;28;20202;-76
2022/06/10 10:43:47;;;;;;;4.30;1.58;;;19.50;99.90;;;;;;5041684;28;20213;-76
2022/06/10 10:46:33;;;;;;;3.63;1.30;;;19.60;99.90;;;;;;5046372;28;20680;-76
2022/06/10 10:49:05;;;;;;;1.90;1.17;;;19.60;99.90;;;;;;5058733;28;20195;-76
2022/06/10 10:51:39;;;;;;;5.78;1.27;;;19.80;99.90;;;;;;5049502;28;20198;-76
2022/06/10 10:54:15;;;;;;;4.07;1.77;;;19.90;99.90;;;;;;5045878;28;20189;-76
2022/06/10 10:56:47;;;;;;;3.60;1.52;;;19.90;99.90;;;;;;5041258;28;20222;-76
2022/06/10 10:59:55;;;;;;;3.53;1.70;;;19.90;99.90;;;;;;5040177;28;20194;-76
2022/06/10 11:02:36;;;;;;;4.05;1.70;;;20.10;99.90;;;;;;5043695;28;20194;-76
2022/06/10 11:05:26;;;;;;;3.83;1.75;;;20.20;99.90;;;;;;5044667;28;20600;-76
2022/06/10 11:08:20;;;;;;;3.80;1.90;;;20.20;99.90;;;;;;5045621;28;20225;-76
2022/06/10 11:11:22;;;;;;;3.72;1.80;;;20.30;99.90;;;;;;5042287;28;20203;-76
2022/06/10 11:13:56;;;;;;;7.18;2.10;;;20.40;99.90;;;;;;5037171;28;20207;-78
2022/06/10 11:16:38;;;;;;;4.82;2.15;;;20.40;99.90;;;;;;5044852;28;20230;-77
2022/06/10 11:19:25;;;;;;;3.78;2.63;;;20.30;99.90;;;;;;5053124;28;20217;-77
2022/06/10 11:22:08;;;;;;;6.07;2.58;;;20.40;99.90;;;;;;5047975;28;20198;-76
2022/06/10 11:24:39;;;;;;;4.68;2.67;;;20.40;99.90;;;;;;5047608;28;20191;-76
2022/06/10 11:27:24;;;;;;;5.57;2.80;;;20.60;99.90;;;;;;5051251;28;20569;-78
2022/06/10 11:30:07;;;;;;;5.35;2.90;;;20.60;99.90;;;;;;5047735;28;20540;-76
2022/06/10 11:32:40;;;;;;;4.28;2.83;;;20.70;99.90;;;;;;5043773;28;20209;-76
2022/06/10 11:35:23;;;;;;;4.28;2.22;;;20.80;99.90;;;;;;5050799;28;20676;-77
2022/06/10 11:38:26;;;;;;;5.80;2.20;;;20.90;99.90;;;;;;5048634;28;20219;-77
2022/06/10 11:40:55;;;;;;;6.30;2.83;;;20.90;99.90;;;;;;5050738;28;20695;-76
2022/06/10 11:43:35;;;;;;;4.40;2.75;;;20.90;99.90;;;;;;5047807;28;20194;-76
2022/06/10 11:46:25;;;;;;;5.05;2.67;;;20.90;99.90;;;;;;5053131;28;20218;-77
2022/06/10 11:48:59;;;;;;;5.53;2.63;;;20.90;99.90;;;;;;5053290;28;20559;-76
2022/06/10 11:51:32;;;;;;;3.85;2.42;;;20.80;99.90;;;;;;5047386;28;20197;-76
2022/06/10 11:54:06;;;;;;;6.53;2.17;;;20.90;99.90;;;;;;5052942;28;20198;-76
2022/06/10 11:59:46;;;;;;;3.55;2.00;;;20.90;99.90;;;;;;5048820;28;20652;-76
2022/06/10 12:02:21;;;;;;;4.25;2.30;;;21.00;99.90;;;;;;5050428;28;20652;-76
2022/06/10 12:04:57;;;;;;;4.63;2.17;;;21.20;99.90;;;;;;5040995;28;20197;-76
2022/06/10 12:07:28;;;;;;;4.75;1.98;;;21.50;99.90;;;;;;5040843;28;20217;-76
2022/06/10 12:10:02;;;;;;;4.88;1.50;;;21.20;99.90;;;;;;5052970;28;20197;-76
2022/06/10 12:12:33;;;;;;;6.28;2.20;;;21.20;99.90;;;;;;5052528;28;20194;-76
2022/06/10 12:15:12;;;;;;;4.95;2.08;;;21.30;99.90;;;;;;5050808;28;20222;-76
2022/06/10 12:17:42;;;;;;;3.47;1.63;;;21.20;99.90;;;;;;5049397;28;20731;-76
2022/06/10 12:20:16;;;;;;;5.50;2.08;;;21.30;99.90;;;;;;5048617;28;20207;-77
2022/06/10 12:22:49;;;;;;;6.13;2.15;;;21.40;99.90;;;;;;5038943;28;20208;-77
2022/06/10 12:25:21;;;;;;;5.38;2.00;;;21.40;99.90;;;;;;5047021;28;20198;-76
2022/06/10 12:27:56;;;;;;;6.45;2.13;;;21.40;99.90;;;;;;5052207;28;20214;-76
2022/06/10 12:30:43;;;;;;;4.15;1.95;;;21.40;99.90;;;;;;5051747;28;20201;-76
2022/06/10 12:33:18;;;;;;;4.10;2.05;;;21.40;99.90;;;;;;5051039;28;20202;-76
2022/06/10 12:35:46;;;;;;;5.78;1.90;;;21.80;99.90;;;;;;5053775;28;20212;-76
2022/06/10 12:38:20;;;;;;;6.57;1.98;;;21.90;99.90;;;;;;5047323;28;20649;-76
2022/06/10 12:41:12;;;;;;;5.97;1.90;;;21.90;99.90;;;;;;5058343;28;20545;-76
2022/06/10 12:43:42;;;;;;;3.83;1.75;;;21.80;99.90;;;;;;5052764;28;20194;-76
2022/06/10 12:49:40;;;;;;;6.90;2.08;;;22.00;99.30;;;;;;5050545;28;20178;-76
2022/06/10 12:52:20;;;;;;;4.28;1.90;;;22.10;99.90;;;;;;5075438;28;20198;-76
2022/06/10 12:55:01;;;;;;;2.70;1.50;;;21.70;99.90;;;;;;5050952;28;20205;-76
2022/06/10 12:57:47;;;;;;;5.57;1.88;;;21.60;99.90;;;;;;5048429;28;20225;-76
2022/06/10 13:00:38;;;;;;;4.72;1.80;;;21.60;99.90;;;;;;5049028;28;20209;-77
2022/06/10 13:03:25;;;;;;;2.90;1.92;;;21.90;99.90;;;;;;5043911;28;20210;-76
2022/06/10 13:05:53;;;;;;;6.15;1.80;;;22.10;99.90;;;;;;5039620;28;20229;-76
2022/06/10 13:08:52;;;;;;;4.82;1.95;;;22.00;99.90;;;;;;5041859;28;20191;-76
2022/06/10 13:11:39;;;;;;;3.25;1.63;;;21.90;99.80;;;;;;5047214;28;20191;-76
2022/06/10 13:14:16;;;;;;;3.42;2.03;;;22.30;99.90;;;;;;5047418;28;20207;-76
2022/06/10 13:16:47;;;;;;;2.17;1.83;;;22.50;99.60;;;;;;5064434;28;20225;-76
2022/06/10 13:19:33;;;;;;;6.47;2.10;;;22.20;99.00;;;;;;5079811;28;20688;-78
2022/06/10 13:22:31;;;;;;;4.18;2.10;;;22.40;99.50;;;;;;5049905;28;20201;-77
2022/06/10 13:25:26;;;;;;;5.03;1.90;;;22.30;99.20;;;;;;5043630;28;20198;-76
2022/06/10 13:27:54;;;;;;;3.78;2.22;;;22.40;98.60;;;;;;5052276;28;20576;-76
2022/06/10 13:30:27;;;;;;;3.97;2.08;;;22.40;98.80;;;;;;5044282;28;20210;-76
2022/06/10 13:33:27;;;;;;;5.03;1.98;;;22.50;98.90;;;;;;5050382;28;20207;-76
2022/06/10 13:35:56;;;;;;;7.25;2.47;;;22.50;98.90;;;;;;5044920;28;20224;-76
2022/06/10 13:38:30;;;;;;;2.25;1.80;;;22.30;98.40;;;;;;5048856;28;20211;-76
2022/06/10 13:43:43;;;;;;;2.10;1.90;;;22.60;98.20;;;;;;5052415;28;20182;-76
2022/06/10 13:46:16;;;;;;;5.25;1.98;;;22.50;98.40;;;;;;5044598;28;20222;-76